createdAt,value
2023-01-01T00:00:15.182Z,86.80
2023-01-01T00:03:00.976Z,86.90
2023-01-01T00:05:47.167Z,87.80
2023-01-01T00:08:33.362Z,87.80
2023-01-01T00:11:19.463Z,88.40
2023-01-01T00:14:11.742Z,88.60
2023-01-01T00:16:58.290Z,88.80
2023-01-01T00:19:44.264Z,88.60
2023-01-01T00:25:36.380Z,87.70
2023-01-01T00:28:22.461Z,87.90
2023-01-01T00:31:08.868Z,88.50
2023-01-01T00:33:55.835Z,87.50
2023-01-01T00:36:42.551Z,86.80
2023-01-01T00:39:28.645Z,86.10
2023-01-01T00:42:14.691Z,85.80
2023-01-01T00:45:00.427Z,84.90
2023-01-01T00:47:46.434Z,84.80
2023-01-01T00:50:32.475Z,83.80
2023-01-01T00:53:18.961Z,83.30
2023-01-01T00:56:06.492Z,83.70
2023-01-01T00:59:00.496Z,83.50
2023-01-01T01:01:47.883Z,83.40
2023-01-01T01:04:33.809Z,82.20
2023-01-01T01:07:19.936Z,82.00
2023-01-01T01:10:06.341Z,81.60
2023-01-01T01:12:53.164Z,81.10
2023-01-01T01:15:39.129Z,81.20
2023-01-01T01:18:25.243Z,81.00
2023-01-01T01:21:14.581Z,80.40
2023-01-01T01:24:01.822Z,79.40
2023-01-01T01:26:47.881Z,79.10
2023-01-01T01:29:33.913Z,78.40
2023-01-01T01:32:20.357Z,78.20
2023-01-01T01:35:06.184Z,77.50
2023-01-01T01:37:52.135Z,78.40
2023-01-01T01:40:42.126Z,79.00
2023-01-01T01:43:31.059Z,78.90
2023-01-01T01:46:23.345Z,79.30
2023-01-01T01:49:18.454Z,79.10
2023-01-01T01:52:04.674Z,79.40
2023-01-01T01:54:50.540Z,80.30
2023-01-01T01:57:37.651Z,80.80
2023-01-01T02:00:23.942Z,81.10
2023-01-01T02:03:17.070Z,81.90
2023-01-01T02:06:03.290Z,81.70
2023-01-01T02:08:50.164Z,81.50
2023-01-01T02:11:36.471Z,82.10
2023-01-01T02:14:22.508Z,82.40
2023-01-01T02:17:31.655Z,82.60
2023-01-01T02:20:26.670Z,83.10
2023-01-01T02:23:12.463Z,83.80
2023-01-01T02:26:07.517Z,83.70
2023-01-01T02:29:23.278Z,83.30
2023-01-01T02:32:19.851Z,84.10
2023-01-01T02:35:35.103Z,83.90
2023-01-01T02:38:32.255Z,83.50
2023-01-01T02:41:21.589Z,83.20
2023-01-01T02:44:07.908Z,83.70
2023-01-01T02:46:54.090Z,83.90
2023-01-01T02:50:04.563Z,84.00
2023-01-01T02:53:03.500Z,84.50
2023-01-01T02:56:04.164Z,84.70
2023-01-01T02:59:32.405Z,84.40
2023-01-01T03:02:33.621Z,84.70
2023-01-01T03:05:25.961Z,85.00
2023-01-01T03:08:23.192Z,84.80
2023-01-01T03:11:11.118Z,83.30
2023-01-01T03:14:03.343Z,82.90
2023-01-01T03:16:52.640Z,83.80
2023-01-01T03:19:40.373Z,84.50
2023-01-01T03:22:29.181Z,84.50
2023-01-01T03:25:17.288Z,84.50
2023-01-01T03:28:05.601Z,84.50
2023-01-01T03:30:52.768Z,84.20
2023-01-01T03:33:41.372Z,84.60
2023-01-01T03:36:33.985Z,84.80
2023-01-01T03:39:24.931Z,83.70
2023-01-01T03:42:29.137Z,83.40
2023-01-01T03:45:21.223Z,83.60
2023-01-01T03:48:07.365Z,83.90
2023-01-01T03:51:10.100Z,84.30
2023-01-01T03:53:59.747Z,84.60
2023-01-01T03:56:48.189Z,85.10
2023-01-01T03:59:37.390Z,85.10
2023-01-01T04:02:27.037Z,85.00
2023-01-01T04:05:14.019Z,85.00
2023-01-01T04:08:02.006Z,84.60
2023-01-01T04:10:59.306Z,84.00
2023-01-01T04:13:46.534Z,83.50
2023-01-01T04:16:32.532Z,83.10
2023-01-01T04:19:18.617Z,83.00
2023-01-01T04:22:05.347Z,82.80
2023-01-01T04:24:51.133Z,82.50
2023-01-01T04:27:37.753Z,82.20
2023-01-01T04:30:23.548Z,82.10
2023-01-01T04:33:09.715Z,82.50
2023-01-01T04:35:55.941Z,82.90
2023-01-01T04:38:41.805Z,82.60
2023-01-01T04:41:27.874Z,82.70
2023-01-01T04:44:13.899Z,83.00
2023-01-01T04:47:00.285Z,82.80
2023-01-01T04:49:46.595Z,83.30
2023-01-01T04:52:32.544Z,83.50
2023-01-01T04:55:18.789Z,83.90
2023-01-01T04:58:04.634Z,83.90
2023-01-01T05:00:50.997Z,83.70
2023-01-01T05:03:37.051Z,84.10
2023-01-01T05:06:23.725Z,84.40
2023-01-01T05:09:10.163Z,84.50
2023-01-01T05:11:56.180Z,84.70
2023-01-01T05:14:42.487Z,84.50
2023-01-01T05:17:28.385Z,84.30
2023-01-01T05:20:14.526Z,83.80
2023-01-01T05:23:00.997Z,83.40
2023-01-01T05:25:47.053Z,83.00
2023-01-01T05:28:33.418Z,82.70
2023-01-01T05:31:20.691Z,82.30
2023-01-01T05:36:51.943Z,81.80
2023-01-01T05:39:37.855Z,81.70
2023-01-01T05:42:24.272Z,81.30
2023-01-01T05:45:10.522Z,81.00
2023-01-01T05:47:56.556Z,81.10
2023-01-01T05:50:42.521Z,81.20
2023-01-01T05:53:28.848Z,81.70
2023-01-01T05:56:16.027Z,81.50
2023-01-01T05:59:02.034Z,81.40
2023-01-01T06:01:48.157Z,81.20
2023-01-01T06:04:34.046Z,81.20
2023-01-01T06:07:20.210Z,81.40
2023-01-01T06:10:06.186Z,81.60
2023-01-01T06:12:52.005Z,81.40
2023-01-01T06:15:38.202Z,81.30
2023-01-01T06:18:24.740Z,81.40
2023-01-01T06:21:12.750Z,81.40
2023-01-01T06:23:59.063Z,81.50
2023-01-01T06:26:44.899Z,81.60
2023-01-01T06:29:31.007Z,81.50
2023-01-01T06:32:17.011Z,81.60
2023-01-01T06:35:02.977Z,81.20
2023-01-01T06:37:49.071Z,80.70
2023-01-01T06:40:34.944Z,80.80
2023-01-01T06:43:20.972Z,80.60
2023-01-01T06:46:19.459Z,81.00
2023-01-01T06:49:06.874Z,81.00
2023-01-01T06:51:52.551Z,81.70
2023-01-01T06:54:38.654Z,81.90
2023-01-01T06:57:24.946Z,82.30
2023-01-01T07:00:11.097Z,83.00
2023-01-01T07:02:56.885Z,82.90
2023-01-01T07:05:42.894Z,83.50
2023-01-01T07:08:28.872Z,84.30
2023-01-01T07:11:15.018Z,84.40
2023-01-01T07:14:00.901Z,85.30
2023-01-01T07:16:46.800Z,84.80
2023-01-01T07:19:32.830Z,85.00
2023-01-01T07:22:18.887Z,84.50
2023-01-01T07:25:05.061Z,85.10
2023-01-01T07:27:50.712Z,85.90
2023-01-01T07:30:36.763Z,86.80
2023-01-01T07:33:23.885Z,86.80
2023-01-01T07:36:10.096Z,86.10
2023-01-01T07:38:55.758Z,86.90
2023-01-01T07:41:41.797Z,86.90
2023-01-01T07:44:27.897Z,86.90
2023-01-01T07:47:21.234Z,87.50
2023-01-01T07:50:07.098Z,87.70
2023-01-01T07:52:52.863Z,87.40
2023-01-01T07:55:38.979Z,85.70
2023-01-01T07:58:24.955Z,83.70
2023-01-01T08:01:12.169Z,80.60
2023-01-01T08:03:58.705Z,78.30
2023-01-01T08:06:44.610Z,75.20
2023-01-01T08:09:30.768Z,73.30
2023-01-01T08:12:16.982Z,71.90
2023-01-01T08:15:03.104Z,69.60
2023-01-01T08:17:48.984Z,67.60
2023-01-01T08:20:34.974Z,67.80
2023-01-01T08:23:21.520Z,67.70
2023-01-01T08:26:07.680Z,67.20
2023-01-01T08:28:57.166Z,65.90
2023-01-01T08:31:43.902Z,65.70
2023-01-01T08:34:29.640Z,65.60
2023-01-01T08:37:15.680Z,66.60
2023-01-01T08:40:01.805Z,69.10
2023-01-01T08:42:47.937Z,70.70
2023-01-01T08:45:34.040Z,71.00
2023-01-01T08:48:23.105Z,71.50
2023-01-01T08:51:11.882Z,72.50
2023-01-01T08:53:57.916Z,72.00
2023-01-01T08:56:43.861Z,72.50
2023-01-01T08:59:30.106Z,72.70
2023-01-01T09:02:16.373Z,73.20
2023-01-01T09:05:02.318Z,73.20
2023-01-01T09:07:48.502Z,73.30
2023-01-01T09:10:34.391Z,73.00
2023-01-01T09:13:21.591Z,73.10
2023-01-01T09:16:07.777Z,73.30
2023-01-01T09:18:53.726Z,73.80
2023-01-01T09:21:39.743Z,73.70
2023-01-01T09:24:25.766Z,73.60
2023-01-01T09:27:11.827Z,74.00
2023-01-01T09:29:57.967Z,75.70
2023-01-01T09:32:44.129Z,76.10
2023-01-01T09:35:30.724Z,75.50
2023-01-01T09:38:16.483Z,74.70
2023-01-01T09:41:07.626Z,75.60
2023-01-01T09:43:53.337Z,75.30
2023-01-01T09:46:39.364Z,75.40
2023-01-01T09:49:31.737Z,74.70
2023-01-01T09:52:18.162Z,75.50
2023-01-01T09:55:09.864Z,73.30
2023-01-01T09:57:56.091Z,71.90
2023-01-01T10:00:43.401Z,71.00
2023-01-01T10:03:51.843Z,70.20
2023-01-01T10:06:40.723Z,68.40
2023-01-01T10:09:30.751Z,67.30
2023-01-01T10:12:22.626Z,66.50
2023-01-01T10:15:23.513Z,65.90
2023-01-01T10:18:21.437Z,64.60
2023-01-01T10:21:11.804Z,62.70
2023-01-01T10:24:04.602Z,60.70
2023-01-01T10:26:51.833Z,59.10
2023-01-01T10:29:46.624Z,59.30
2023-01-01T10:32:36.689Z,59.20
2023-01-01T10:35:30.156Z,60.40
2023-01-01T10:38:23.892Z,61.90
2023-01-01T10:41:17.163Z,61.90
2023-01-01T10:44:06.402Z,61.30
2023-01-01T10:46:54.908Z,61.80
2023-01-01T10:49:54.317Z,60.60
2023-01-01T10:52:41.123Z,59.00
2023-01-01T10:55:27.221Z,57.80
2023-01-01T10:58:25.986Z,56.90
2023-01-01T11:01:18.314Z,56.80
2023-01-01T11:04:13.449Z,55.70
2023-01-01T11:06:59.353Z,54.90
2023-01-01T11:10:02.492Z,54.30
2023-01-01T11:13:06.526Z,53.70
2023-01-01T11:15:53.340Z,52.30
2023-01-01T11:18:39.092Z,53.80
2023-01-01T11:21:25.156Z,53.10
2023-01-01T11:24:31.236Z,53.40
2023-01-01T11:27:19.991Z,54.00
2023-01-01T11:30:41.675Z,54.50
2023-01-01T11:33:29.949Z,55.10
2023-01-01T11:36:30.350Z,55.20
2023-01-01T11:39:27.004Z,54.80
2023-01-01T11:42:21.559Z,53.50
2023-01-01T11:45:12.761Z,54.20
2023-01-01T11:47:59.986Z,55.00
2023-01-01T11:50:53.988Z,54.50
2023-01-01T11:53:41.708Z,53.80
2023-01-01T11:56:27.620Z,53.40
2023-01-01T11:59:18.028Z,53.20
2023-01-01T12:02:04.996Z,51.80
2023-01-01T12:04:54.860Z,51.30
2023-01-01T12:07:43.009Z,51.20
2023-01-01T12:10:31.268Z,52.30
2023-01-01T12:13:22.605Z,52.00
2023-01-01T12:16:19.736Z,53.50
2023-01-01T12:19:10.035Z,53.70
2023-01-01T12:21:58.725Z,54.80
2023-01-01T12:24:45.937Z,55.00
2023-01-01T12:27:31.795Z,55.90
2023-01-01T12:30:21.085Z,55.00
2023-01-01T12:33:19.146Z,55.70
2023-01-01T12:36:08.247Z,54.80
2023-01-01T12:39:09.357Z,52.90
2023-01-01T12:42:04.757Z,51.80
2023-01-01T12:45:09.574Z,51.20
2023-01-01T12:48:00.510Z,50.50
2023-01-01T12:51:05.437Z,50.60
2023-01-01T12:54:10.311Z,50.00
2023-01-01T12:57:17.205Z,49.60
2023-01-01T13:00:11.531Z,49.70
2023-01-01T13:03:04.192Z,49.80
2023-01-01T13:05:51.596Z,48.90
2023-01-01T13:08:38.035Z,49.10
2023-01-01T13:11:26.757Z,48.90
2023-01-01T13:14:12.668Z,48.20
2023-01-01T13:16:58.745Z,49.40
2023-01-01T13:19:45.118Z,49.10
2023-01-01T13:22:31.187Z,49.70
2023-01-01T13:25:17.060Z,50.90
2023-01-01T13:28:03.756Z,50.20
2023-01-01T13:30:49.974Z,50.00
2023-01-01T13:33:37.106Z,49.70
2023-01-01T13:36:23.013Z,49.40
2023-01-01T13:39:09.176Z,48.70
2023-01-01T13:41:55.266Z,48.10
2023-01-01T13:44:41.354Z,47.20
2023-01-01T13:47:27.082Z,47.30
2023-01-01T13:50:20.655Z,46.80
2023-01-01T13:53:09.382Z,46.90
2023-01-01T13:56:06.171Z,46.10
2023-01-01T13:59:12.110Z,46.10
2023-01-01T14:01:58.207Z,46.20
2023-01-01T14:05:02.498Z,46.40
2023-01-01T14:07:53.195Z,46.20
2023-01-01T14:10:39.688Z,45.80
2023-01-01T14:13:30.027Z,45.50
2023-01-01T14:16:16.485Z,45.30
2023-01-01T14:19:03.489Z,45.00
2023-01-01T14:21:50.033Z,44.90
2023-01-01T14:24:38.734Z,45.10
2023-01-01T14:27:27.211Z,44.60
2023-01-01T14:30:17.698Z,45.10
2023-01-01T14:33:03.634Z,45.10
2023-01-01T14:35:53.698Z,43.80
2023-01-01T14:38:43.665Z,45.10
2023-01-01T14:41:34.026Z,45.10
2023-01-01T14:44:27.338Z,44.80
2023-01-01T14:47:33.844Z,43.60
2023-01-01T14:50:23.136Z,44.40
2023-01-01T14:53:13.421Z,44.50
2023-01-01T14:55:59.484Z,44.40
2023-01-01T14:58:45.244Z,45.80
2023-01-01T15:01:31.653Z,47.00
2023-01-01T15:04:20.251Z,48.30
2023-01-01T15:07:06.869Z,48.70
2023-01-01T15:09:56.550Z,50.20
2023-01-01T15:12:43.042Z,51.60
2023-01-01T15:15:35.135Z,52.30
2023-01-01T15:18:36.650Z,53.00
2023-01-01T15:21:31.492Z,55.40
2023-01-01T15:24:20.505Z,57.10
2023-01-01T15:27:07.304Z,57.70
2023-01-01T15:29:53.760Z,58.20
2023-01-01T15:32:40.033Z,58.90
2023-01-01T15:35:32.673Z,60.10
2023-01-01T15:38:30.739Z,60.20
2023-01-01T15:41:23.944Z,61.00
2023-01-01T15:44:36.389Z,61.10
2023-01-01T15:47:26.577Z,62.00
2023-01-01T15:50:44.195Z,62.30
2023-01-01T15:53:31.229Z,62.60
2023-01-01T15:56:17.382Z,63.30
2023-01-01T15:59:09.259Z,63.50
2023-01-01T16:02:14.856Z,63.20
2023-01-01T16:05:01.407Z,63.80
2023-01-01T16:07:47.490Z,63.30
2023-01-01T16:10:33.287Z,62.80
2023-01-01T16:13:19.455Z,63.20
2023-01-01T16:16:15.236Z,63.20
2023-01-01T16:19:01.349Z,63.10
2023-01-01T16:21:47.348Z,63.10
2023-01-01T16:24:35.401Z,63.30
2023-01-01T16:27:21.241Z,63.50
2023-01-01T16:30:07.473Z,63.70
2023-01-01T16:32:55.184Z,63.70
2023-01-01T16:35:41.142Z,64.10
2023-01-01T16:38:26.870Z,64.20
2023-01-01T16:41:16.816Z,64.20
2023-01-01T16:44:02.983Z,64.30
2023-01-01T16:46:49.018Z,64.50
2023-01-01T16:49:34.891Z,64.30
2023-01-01T16:52:20.901Z,64.50
2023-01-01T16:55:06.926Z,64.80
2023-01-01T16:58:07.398Z,64.90
2023-01-01T17:00:59.907Z,65.20
2023-01-01T17:03:45.711Z,65.40
2023-01-01T17:06:33.023Z,65.20
2023-01-01T17:09:18.911Z,65.40
2023-01-01T17:12:05.076Z,65.50
2023-01-01T17:14:50.839Z,65.60
2023-01-01T17:17:36.925Z,65.90
2023-01-01T17:20:24.864Z,66.10
2023-01-01T17:23:10.708Z,66.00
2023-01-01T17:26:04.340Z,66.20
2023-01-01T17:28:59.782Z,66.40
2023-01-01T17:31:46.602Z,66.60
2023-01-01T17:34:32.666Z,66.60
2023-01-01T17:37:18.743Z,66.90
2023-01-01T17:40:05.274Z,67.20
2023-01-01T17:42:51.012Z,66.90
2023-01-01T17:45:37.222Z,66.80
2023-01-01T17:48:23.131Z,66.90
2023-01-01T17:51:09.641Z,67.10
2023-01-01T17:53:56.236Z,66.90
2023-01-01T17:56:42.513Z,66.80
2023-01-01T17:59:28.203Z,67.20
2023-01-01T18:02:14.899Z,67.20
2023-01-01T18:05:00.844Z,67.40
2023-01-01T18:07:46.781Z,67.60
2023-01-01T18:10:33.283Z,67.80
2023-01-01T18:13:19.066Z,68.00
2023-01-01T18:16:06.734Z,68.30
2023-01-01T18:18:52.895Z,68.30
2023-01-01T18:21:38.876Z,68.40
2023-01-01T18:24:26.067Z,68.50
2023-01-01T18:27:12.146Z,68.80
2023-01-01T18:29:58.331Z,68.90
2023-01-01T18:32:44.422Z,69.10
2023-01-01T18:35:30.461Z,69.20
2023-01-01T18:38:17.624Z,69.30
2023-01-01T18:41:06.525Z,69.40
2023-01-01T18:43:52.590Z,69.50
2023-01-01T18:46:38.545Z,69.40
2023-01-01T18:49:25.508Z,69.70
2023-01-01T18:52:21.508Z,69.80
2023-01-01T18:55:12.197Z,70.20
2023-01-01T18:58:00.180Z,70.30
2023-01-01T19:00:46.534Z,70.60
2023-01-01T19:03:40.822Z,70.30
2023-01-01T19:06:29.373Z,70.30
2023-01-01T19:09:23.331Z,70.30
2023-01-01T19:12:10.870Z,70.40
2023-01-01T19:14:56.605Z,70.60
2023-01-01T19:17:42.664Z,70.60
2023-01-01T19:20:28.646Z,70.60
2023-01-01T19:23:19.758Z,70.70
2023-01-01T19:26:05.987Z,70.70
2023-01-01T19:28:53.423Z,70.70
2023-01-01T19:31:39.382Z,70.80
2023-01-01T19:34:25.671Z,70.70
2023-01-01T19:37:11.761Z,70.60
2023-01-01T19:39:57.689Z,70.60
2023-01-01T19:42:43.594Z,70.70
2023-01-01T19:45:29.759Z,70.70
2023-01-01T19:48:15.751Z,70.80
2023-01-01T19:51:01.531Z,70.70
2023-01-01T19:53:47.726Z,71.00
2023-01-01T19:56:33.325Z,70.90
2023-01-01T19:59:19.549Z,71.00
2023-01-01T20:05:11.911Z,71.10
2023-01-01T20:07:58.069Z,71.10
2023-01-01T20:10:44.126Z,71.10
2023-01-01T20:13:30.387Z,71.10
2023-01-01T20:16:16.395Z,71.10
2023-01-01T20:19:02.384Z,71.10
2023-01-01T20:22:07.234Z,70.70
2023-01-01T20:24:52.985Z,70.80
2023-01-01T20:27:58.684Z,70.70
2023-01-01T20:30:44.870Z,70.60
2023-01-01T20:33:30.924Z,70.30
2023-01-01T20:36:35.540Z,70.40
2023-01-01T20:39:22.547Z,70.20
2023-01-01T20:42:08.470Z,70.40
2023-01-01T20:44:54.568Z,70.20
2023-01-01T20:47:40.966Z,70.30
2023-01-01T20:50:26.947Z,70.40
2023-01-01T20:53:13.035Z,70.40
2023-01-01T20:55:58.904Z,70.50
2023-01-01T20:58:49.335Z,70.80
2023-01-01T21:01:37.344Z,71.10
2023-01-01T21:04:23.551Z,71.00
2023-01-01T21:07:10.489Z,71.20
2023-01-01T21:09:56.513Z,71.30
2023-01-01T21:12:42.554Z,71.10
2023-01-01T21:15:28.682Z,71.90
2023-01-01T21:18:14.899Z,71.00
2023-01-01T21:21:00.929Z,71.70
2023-01-01T21:23:47.364Z,72.40
2023-01-01T21:26:35.935Z,72.60
2023-01-01T21:29:23.935Z,72.90
2023-01-01T21:32:16.250Z,73.00
2023-01-01T21:35:02.249Z,73.70
2023-01-01T21:37:52.728Z,74.00
2023-01-01T21:40:41.139Z,74.10
2023-01-01T21:43:44.182Z,74.60
2023-01-01T21:46:30.312Z,74.90
2023-01-01T21:49:22.459Z,75.40
2023-01-01T21:52:15.313Z,75.90
2023-01-01T21:55:01.150Z,76.10
2023-01-01T21:57:47.329Z,75.90
2023-01-01T22:00:33.376Z,75.60
2023-01-01T22:03:19.450Z,76.10
2023-01-01T22:06:12.544Z,76.00
2023-01-01T22:08:58.250Z,75.90
2023-01-01T22:11:44.982Z,76.00
2023-01-01T22:14:36.477Z,76.30
2023-01-01T22:17:22.595Z,76.80
2023-01-01T22:20:17.468Z,77.60
2023-01-01T22:23:14.295Z,77.60
2023-01-01T22:26:02.899Z,77.60
2023-01-01T22:28:50.358Z,77.30
2023-01-01T22:31:36.495Z,76.60
2023-01-01T22:34:23.201Z,76.80
2023-01-01T22:37:15.574Z,77.30
2023-01-01T22:40:01.581Z,77.80
2023-01-01T22:42:47.197Z,79.50
2023-01-01T22:45:35.327Z,78.60
2023-01-01T22:48:32.528Z,78.80
2023-01-01T22:51:18.762Z,79.10
2023-01-01T22:54:04.778Z,79.40
2023-01-01T22:56:50.828Z,79.90
2023-01-01T22:59:36.775Z,80.00
2023-01-01T23:02:22.930Z,79.20
2023-01-01T23:05:08.963Z,79.10
2023-01-01T23:07:55.023Z,79.00
2023-01-01T23:10:40.733Z,79.80
2023-01-01T23:13:45.783Z,80.60
2023-01-01T23:16:31.678Z,81.20
2023-01-01T23:19:17.953Z,80.00
2023-01-01T23:22:04.161Z,80.40
2023-01-01T23:24:49.963Z,81.20
2023-01-01T23:27:36.254Z,80.50
2023-01-01T23:30:22.144Z,81.20
2023-01-01T23:33:08.240Z,81.80
2023-01-01T23:35:54.327Z,82.40
2023-01-01T23:38:40.706Z,82.50
2023-01-01T23:41:26.662Z,82.60
2023-01-01T23:44:12.527Z,82.20
2023-01-01T23:47:00.317Z,83.30
2023-01-01T23:49:46.148Z,83.50
2023-01-01T23:52:32.216Z,81.50
2023-01-01T23:55:18.128Z,81.80
2023-01-01T23:58:03.887Z,82.10
